sensor_id;sensor_type;location;lat;lon;timestamp;pressure;altitude;pressure_sealevel;temperature;humidity
80976;BME280;70437;49.466;11.002;2023-08-30T00:00:11;97519.31;;;14.65;100.00
80976;BME280;70437;49.466;11.002;2023-08-30T00:02:40;97512.84;;;14.61;100.00
80976;BME280;70437;49.466;11.002;2023-08-30T00:05:15;97513.06;;;14.55;100.00
80976;BME280;70437;49.466;11.002;2023-08-30T00:07:45;97510.13;;;14.51;100.00
80976;BME280;70437;49.466;11.002;2023-08-30T00:10:16;97517.59;;;14.44;100.00
80976;BME280;70437;49.466;11.002;2023-08-30T00:12:49;97503.59;;;14.42;100.00
80976;BME280;70437;49.466;11.002;2023-08-30T00:15:19;97518.13;;;14.46;100.00
80976;BME280;70437;49.466;11.002;2023-08-30T00:17:54;97521.88;;;14.40;100.00
80976;BME280;70437;49.466;11.002;2023-08-30T00:20:22;97517.63;;;14.49;100.00
80976;BME280;70437;49.466;11.002;2023-08-30T00:22:52;97516.84;;;14.49;100.00
80976;BME280;70437;49.466;11.002;2023-08-30T00:25:20;97510.88;;;14.47;100.00
80976;BME280;70437;49.466;11.002;2023-08-30T00:27:51;97518.09;;;14.41;100.00
80976;BME280;70437;49.466;11.002;2023-08-30T00:30:21;97515.69;;;14.39;100.00
80976;BME280;70437;49.466;11.002;2023-08-30T00:32:51;97513.78;;;14.35;100.00
80976;BME280;70437;49.466;11.002;2023-08-30T00:35:19;97507.00;;;14.27;100.00
80976;BME280;70437;49.466;11.002;2023-08-30T00:37:48;97509.19;;;14.30;100.00
80976;BME280;70437;49.466;11.002;2023-08-30T00:40:16;97505.88;;;14.18;100.00
80976;BME280;70437;49.466;11.002;2023-08-30T00:42:43;97509.44;;;14.29;100.00
80976;BME280;70437;49.466;11.002;2023-08-30T00:45:12;97508.97;;;14.42;100.00
80976;BME280;70437;49.466;11.002;2023-08-30T00:47:43;97508.75;;;14.49;100.00
80976;BME280;70437;49.466;11.002;2023-08-30T00:50:11;97517.63;;;14.49;100.00
80976;BME280;70437;49.466;11.002;2023-08-30T00:52:42;97516.56;;;14.55;100.00
80976;BME280;70437;49.466;11.002;2023-08-30T00:55:11;97514.44;;;14.62;100.00
80976;BME280;70437;49.466;11.002;2023-08-30T00:57:44;97516.34;;;14.62;100.00
80976;BME280;70437;49.466;11.002;2023-08-30T01:00:15;97503.41;;;14.64;100.00
80976;BME280;70437;49.466;11.002;2023-08-30T01:02:42;97508.78;;;14.59;100.00
80976;BME280;70437;49.466;11.002;2023-08-30T01:05:12;97512.25;;;14.54;100.00
80976;BME280;70437;49.466;11.002;2023-08-30T01:07:42;97503.31;;;14.44;100.00
80976;BME280;70437;49.466;11.002;2023-08-30T01:10:10;97502.50;;;14.43;100.00
80976;BME280;70437;49.466;11.002;2023-08-30T01:12:47;97504.16;;;14.49;100.00
80976;BME280;70437;49.466;11.002;2023-08-30T01:15:19;97511.44;;;14.49;100.00
80976;BME280;70437;49.466;11.002;2023-08-30T01:17:53;97504.19;;;14.54;100.00
80976;BME280;70437;49.466;11.002;2023-08-30T01:20:27;97506.09;;;14.64;100.00
80976;BME280;70437;49.466;11.002;2023-08-30T01:23:22;97506.66;;;14.71;100.00
80976;BME280;70437;49.466;11.002;2023-08-30T01:28:24;97509.09;;;14.73;100.00
80976;BME280;70437;49.466;11.002;2023-08-30T01:30:57;97501.56;;;14.75;100.00
80976;BME280;70437;49.466;11.002;2023-08-30T01:33:38;97509.66;;;14.80;100.00
80976;BME280;70437;49.466;11.002;2023-08-30T01:36:08;97512.38;;;14.85;100.00
80976;BME280;70437;49.466;11.002;2023-08-30T01:38:41;97509.13;;;14.83;100.00
80976;BME280;70437;49.466;11.002;2023-08-30T01:41:12;97503.44;;;14.74;100.00
80976;BME280;70437;49.466;11.002;2023-08-30T01:43:42;97509.34;;;14.66;100.00
80976;BME280;70437;49.466;11.002;2023-08-30T01:46:11;97499.09;;;14.63;100.00
80976;BME280;70437;49.466;11.002;2023-08-30T01:48:40;97508.53;;;14.60;100.00
80976;BME280;70437;49.466;11.002;2023-08-30T01:51:10;97503.94;;;14.56;100.00
80976;BME280;70437;49.466;11.002;2023-08-30T01:53:39;97509.84;;;14.58;100.00
80976;BME280;70437;49.466;11.002;2023-08-30T01:56:08;97503.41;;;14.64;100.00
80976;BME280;70437;49.466;11.002;2023-08-30T01:58:36;97502.88;;;14.62;100.00
80976;BME280;70437;49.466;11.002;2023-08-30T02:01:04;97511.72;;;14.52;100.00
80976;BME280;70437;49.466;11.002;2023-08-30T02:03:33;97517.00;;;14.37;100.00
80976;BME280;70437;49.466;11.002;2023-08-30T02:06:09;97513.00;;;14.45;100.00
80976;BME280;70437;49.466;11.002;2023-08-30T02:08:41;97513.66;;;14.62;100.00
80976;BME280;70437;49.466;11.002;2023-08-30T02:11:19;97509.22;;;14.46;100.00
80976;BME280;70437;49.466;11.002;2023-08-30T02:13:50;97523.72;;;14.29;100.00
80976;BME280;70437;49.466;11.002;2023-08-30T02:16:23;97514.28;;;14.27;100.00
80976;BME280;70437;49.466;11.002;2023-08-30T02:18:55;97518.34;;;14.29;100.00
80976;BME280;70437;49.466;11.002;2023-08-30T02:21:23;97513.78;;;14.35;100.00
80976;BME280;70437;49.466;11.002;2023-08-30T02:23:54;97502.97;;;14.30;100.00
80976;BME280;70437;49.466;11.002;2023-08-30T02:26:22;97504.63;;;14.36;100.00
80976;BME280;70437;49.466;11.002;2023-08-30T02:28:51;97502.50;;;14.43;100.00
80976;BME280;70437;49.466;11.002;2023-08-30T02:31:21;97496.25;;;14.37;100.00
80976;BME280;70437;49.466;11.002;2023-08-30T02:33:52;97495.69;;;14.25;100.00
80976;BME280;70437;49.466;11.002;2023-08-30T02:36:20;97494.06;;;14.24;100.00
80976;BME280;70437;49.466;11.002;2023-08-30T02:38:49;97491.09;;;14.26;100.00
80976;BME280;70437;49.466;11.002;2023-08-30T02:41:25;97496.47;;;14.21;100.00
80976;BME280;70437;49.466;11.002;2023-08-30T02:43:54;97498.94;;;14.37;100.00
80976;BME280;70437;49.466;11.002;2023-08-30T02:46:25;97490.94;;;14.48;100.00
80976;BME280;70437;49.466;11.002;2023-08-30T02:48:55;97492.31;;;14.55;100.00
80976;BME280;70437;49.466;11.002;2023-08-30T02:51:23;97499.34;;;14.51;100.00
80976;BME280;70437;49.466;11.002;2023-08-30T02:53:53;97498.72;;;14.44;100.00
80976;BME280;70437;49.466;11.002;2023-08-30T02:56:21;97500.09;;;14.47;100.00
80976;BME280;70437;49.466;11.002;2023-08-30T02:58:50;97490.91;;;14.43;100.00
80976;BME280;70437;49.466;11.002;2023-08-30T03:01:21;97501.69;;;14.43;100.00
80976;BME280;70437;49.466;11.002;2023-08-30T03:03:51;97501.38;;;14.29;100.00
80976;BME280;70437;49.466;11.002;2023-08-30T03:06:19;97505.69;;;14.30;100.00
80976;BME280;70437;49.466;11.002;2023-08-30T03:08:47;97497.63;;;14.35;100.00
80976;BME280;70437;49.466;11.002;2023-08-30T03:11:16;97494.28;;;14.18;100.00
80976;BME280;70437;49.466;11.002;2023-08-30T03:13:49;97496.47;;;14.15;100.00
80976;BME280;70437;49.466;11.002;2023-08-30T03:16:19;97496.69;;;14.09;100.00
80976;BME280;70437;49.466;11.002;2023-08-30T03:18:47;97494.31;;;14.23;100.00
80976;BME280;70437;49.466;11.002;2023-08-30T03:21:16;97501.63;;;14.32;100.00
80976;BME280;70437;49.466;11.002;2023-08-30T03:23:44;97493.56;;;14.37;100.00
80976;BME280;70437;49.466;11.002;2023-08-30T03:26:14;97497.34;;;14.41;100.00
80976;BME280;70437;49.466;11.002;2023-08-30T03:28:45;97496.81;;;14.39;100.00
80976;BME280;70437;49.466;11.002;2023-08-30T03:31:21;97502.22;;;14.45;100.00
80976;BME280;70437;49.466;11.002;2023-08-30T03:33:50;97502.75;;;14.41;100.00
80976;BME280;70437;49.466;11.002;2023-08-30T03:36:18;97503.03;;;14.45;100.00
80976;BME280;70437;49.466;11.002;2023-08-30T03:38:48;97505.72;;;14.45;100.00
80976;BME280;70437;49.466;11.002;2023-08-30T03:41:21;97498.44;;;14.46;100.00
80976;BME280;70437;49.466;11.002;2023-08-30T03:43:50;97512.50;;;14.48;100.00
80976;BME280;70437;49.466;11.002;2023-08-30T03:46:19;97503.38;;;14.54;100.00
80976;BME280;70437;49.466;11.002;2023-08-30T03:48:48;97490.72;;;14.59;100.00
80976;BME280;70437;49.466;11.002;2023-08-30T03:51:19;97499.91;;;14.63;100.00
80976;BME280;70437;49.466;11.002;2023-08-30T03:53:49;97504.75;;;14.61;100.00
80976;BME280;70437;49.466;11.002;2023-08-30T03:56:18;97504.75;;;14.61;100.00
80976;BME280;70437;49.466;11.002;2023-08-30T03:58:46;97513.38;;;14.63;100.00
80976;BME280;70437;49.466;11.002;2023-08-30T04:01:15;97505.53;;;14.57;100.00
80976;BME280;70437;49.466;11.002;2023-08-30T04:03:43;97510.28;;;14.39;100.00
80976;BME280;70437;49.466;11.002;2023-08-30T04:06:11;97510.00;;;14.36;100.00
80976;BME280;70437;49.466;11.002;2023-08-30T04:08:40;97495.13;;;14.23;100.00
80976;BME280;70437;49.466;11.002;2023-08-30T04:11:15;97495.81;;;13.98;100.00
80976;BME280;70437;49.466;11.002;2023-08-30T04:13:45;97497.16;;;14.01;100.00
80976;BME280;70437;49.466;11.002;2023-08-30T04:16:16;97496.66;;;14.04;100.00
80976;BME280;70437;49.466;11.002;2023-08-30T04:18:43;97505.06;;;14.18;100.00
80976;BME280;70437;49.466;11.002;2023-08-30T04:21:13;97512.41;;;14.32;100.00
80976;BME280;70437;49.466;11.002;2023-08-30T04:23:42;97517.06;;;14.42;100.00
80976;BME280;70437;49.466;11.002;2023-08-30T04:26:11;97520.34;;;14.54;100.00
80976;BME280;70437;49.466;11.002;2023-08-30T04:28:40;97519.06;;;14.67;100.00
80976;BME280;70437;49.466;11.002;2023-08-30T04:31:08;97511.53;;;14.69;100.00
80976;BME280;70437;49.466;11.002;2023-08-30T04:33:37;97516.66;;;14.76;100.00
80976;BME280;70437;49.466;11.002;2023-08-30T04:36:08;97512.88;;;14.82;100.00
80976;BME280;70437;49.466;11.002;2023-08-30T04:38:39;97522.88;;;14.81;100.00
80976;BME280;70437;49.466;11.002;2023-08-30T04:41:25;97519.94;;;14.93;100.00
80976;BME280;70437;49.466;11.002;2023-08-30T04:43:58;97512.66;;;15.04;100.00
80976;BME280;70437;49.466;11.002;2023-08-30T04:46:31;97517.81;;;15.00;100.00
80976;BME280;70437;49.466;11.002;2023-08-30T04:49:00;97521.03;;;15.02;100.00
80976;BME280;70437;49.466;11.002;2023-08-30T04:51:33;97527.75;;;14.95;100.00
80976;BME280;70437;49.466;11.002;2023-08-30T04:54:02;97528.31;;;14.91;100.00
80976;BME280;70437;49.466;11.002;2023-08-30T04:56:31;97523.97;;;14.85;100.00
80976;BME280;70437;49.466;11.002;2023-08-30T04:59:04;97512.88;;;14.82;100.00
80976;BME280;70437;49.466;11.002;2023-08-30T05:01:33;97515.06;;;14.90;100.00
80976;BME280;70437;49.466;11.002;2023-08-30T05:04:03;97517.81;;;15.05;100.00
80976;BME280;70437;49.466;11.002;2023-08-30T05:06:31;97516.16;;;15.04;100.00
80976;BME280;70437;49.466;11.002;2023-08-30T05:09:00;97518.88;;;15.04;100.00
80976;BME280;70437;49.466;11.002;2023-08-30T05:11:29;97510.25;;;15.07;100.00
80976;BME280;70437;49.466;11.002;2023-08-30T05:13:58;97514.28;;;15.00;100.00
80976;BME280;70437;49.466;11.002;2023-08-30T05:16:27;97521.31;;;14.96;100.00
80976;BME280;70437;49.466;11.002;2023-08-30T05:18:58;97518.34;;;14.97;100.00
80976;BME280;70437;49.466;11.002;2023-08-30T05:21:27;97514.56;;;14.98;100.00
80976;BME280;70437;49.466;11.002;2023-08-30T05:23:59;97517.25;;;15.03;100.00
80976;BME280;70437;49.466;11.002;2023-08-30T05:26:29;97521.03;;;15.07;100.00
80976;BME280;70437;49.466;11.002;2023-08-30T05:29:00;97511.09;;;15.18;100.00
80976;BME280;70437;49.466;11.002;2023-08-30T05:31:29;97495.72;;;15.39;100.00
80976;BME280;70437;49.466;11.002;2023-08-30T05:34:05;97493.28;;;15.32;100.00
80976;BME280;70437;49.466;11.002;2023-08-30T05:37:01;97499.78;;;15.31;100.00
80976;BME280;70437;49.466;11.002;2023-08-30T05:39:54;97504.88;;;15.23;100.00
80976;BME280;70437;49.466;11.002;2023-08-30T05:42:22;97509.72;;;15.31;100.00
80976;BME280;70437;49.466;11.002;2023-08-30T05:44:55;97507.31;;;15.39;100.00
80976;BME280;70437;49.466;11.002;2023-08-30T05:47:26;97503.00;;;15.38;100.00
80976;BME280;70437;49.466;11.002;2023-08-30T05:49:57;97492.19;;;15.38;100.00
80976;BME280;70437;49.466;11.002;2023-08-30T05:52:28;97492.19;;;15.33;100.00
80976;BME280;70437;49.466;11.002;2023-08-30T05:54:58;97501.38;;;15.42;100.00
80976;BME280;70437;49.466;11.002;2023-08-30T05:57:26;97499.75;;;15.41;100.00
80976;BME280;70437;49.466;11.002;2023-08-30T06:00:00;97510.28;;;15.38;100.00
80976;BME280;70437;49.466;11.002;2023-08-30T06:02:28;97505.16;;;15.52;100.00
80976;BME280;70437;49.466;11.002;2023-08-30T06:04:56;97505.69;;;15.33;100.00
80976;BME280;70437;49.466;11.002;2023-08-30T06:07:31;97515.13;;;15.21;100.00
80976;BME280;70437;49.466;11.002;2023-08-30T06:10:02;97511.34;;;15.06;100.00
80976;BME280;70437;49.466;11.002;2023-08-30T06:12:32;97508.13;;;15.20;100.00
80976;BME280;70437;49.466;11.002;2023-08-30T06:15:07;97498.69;;;15.32;100.00
80976;BME280;70437;49.466;11.002;2023-08-30T06:17:37;97501.91;;;15.34;100.00
80976;BME280;70437;49.466;11.002;2023-08-30T06:20:06;97497.06;;;15.31;100.00
80976;BME280;70437;49.466;11.002;2023-08-30T06:22:39;97503.25;;;15.52;100.00
80976;BME280;70437;49.466;11.002;2023-08-30T06:25:14;97507.59;;;15.38;100.00
80976;BME280;70437;49.466;11.002;2023-08-30T06:27:56;97500.84;;;15.56;100.00
80976;BME280;70437;49.466;11.002;2023-08-30T06:30:29;97515.94;;;15.26;100.00
80976;BME280;70437;49.466;11.002;2023-08-30T06:32:57;97511.66;;;15.40;100.00
80976;BME280;70437;49.466;11.002;2023-08-30T06:35:25;97511.66;;;15.71;100.00
80976;BME280;70437;49.466;11.002;2023-08-30T06:37:56;97511.94;;;15.70;100.00
80976;BME280;70437;49.466;11.002;2023-08-30T06:40:24;97520.31;;;15.73;100.00
80976;BME280;70437;49.466;11.002;2023-08-30T06:42:53;97520.56;;;15.77;100.00
80976;BME280;70437;49.466;11.002;2023-08-30T06:45:23;97517.31;;;15.54;100.00
80976;BME280;70437;49.466;11.002;2023-08-30T06:47:52;97516.50;;;15.59;100.00
80976;BME280;70437;49.466;11.002;2023-08-30T06:50:22;97515.16;;;15.41;100.00
80976;BME280;70437;49.466;11.002;2023-08-30T06:52:55;97505.97;;;15.52;100.00
80976;BME280;70437;49.466;11.002;2023-08-30T06:55:23;97506.50;;;15.39;100.00
80976;BME280;70437;49.466;11.002;2023-08-30T06:57:52;97509.50;;;15.78;100.00
80976;BME280;70437;49.466;11.002;2023-08-30T07:00:21;97501.38;;;15.99;100.00
80976;BME280;70437;49.466;11.002;2023-08-30T07:02:49;97509.69;;;16.12;100.00
80976;BME280;70437;49.466;11.002;2023-08-30T07:05:18;97509.66;;;16.23;100.00
80976;BME280;70437;49.466;11.002;2023-08-30T07:07:46;97503.78;;;15.85;100.00
80976;BME280;70437;49.466;11.002;2023-08-30T07:10:16;97505.97;;;15.88;100.00
80976;BME280;70437;49.466;11.002;2023-08-30T07:12:46;97497.88;;;15.78;100.00
80976;BME280;70437;49.466;11.002;2023-08-30T07:15:17;97499.22;;;15.90;100.00
80976;BME280;70437;49.466;11.002;2023-08-30T07:17:45;97497.84;;;16.03;100.00
80976;BME280;70437;49.466;11.002;2023-08-30T07:20:34;97496.44;;;16.11;100.00
80976;BME280;70437;49.466;11.002;2023-08-30T07:23:03;97496.69;;;16.20;100.00
80976;BME280;70437;49.466;11.002;2023-08-30T07:25:33;97498.56;;;16.34;100.00
80976;BME280;70437;49.466;11.002;2023-08-30T07:28:05;97502.41;;;16.08;100.00
80976;BME280;70437;49.466;11.002;2023-08-30T07:30:38;97497.28;;;16.06;100.00
80976;BME280;70437;49.466;11.002;2023-08-30T07:33:07;97501.28;;;16.19;100.00
80976;BME280;70437;49.466;11.002;2023-08-30T07:35:41;97508.88;;;16.17;100.00
80976;BME280;70437;49.466;11.002;2023-08-30T07:38:13;97505.59;;;16.20;100.00
80976;BME280;70437;49.466;11.002;2023-08-30T07:40:42;97505.47;;;16.61;100.00
80976;BME280;70437;49.466;11.002;2023-08-30T07:43:10;97506.09;;;16.37;100.00
80976;BME280;70437;49.466;11.002;2023-08-30T07:45:39;97512.09;;;16.94;100.00
80976;BME280;70437;49.466;11.002;2023-08-30T07:48:08;97506.94;;;16.98;100.00
80976;BME280;70437;49.466;11.002;2023-08-30T07:50:37;97506.19;;;17.26;100.00
80976;BME280;70437;49.466;11.002;2023-08-30T07:53:05;97508.22;;;17.44;100.00
80976;BME280;70437;49.466;11.002;2023-08-30T07:55:33;97505.72;;;17.53;100.00
80976;BME280;70437;49.466;11.002;2023-08-30T07:58:01;97505.97;;;17.57;100.00
80976;BME280;70437;49.466;11.002;2023-08-30T08:00:30;97508.25;;;17.79;100.00
80976;BME280;70437;49.466;11.002;2023-08-30T08:02:58;97507.69;;;17.82;100.00
80976;BME280;70437;49.466;11.002;2023-08-30T08:05:32;97505.22;;;18.09;100.00
80976;BME280;70437;49.466;11.002;2023-08-30T08:08:02;97505.97;;;18.39;100.00
80976;BME280;70437;49.466;11.002;2023-08-30T08:10:33;97501.31;;;18.44;100.00
80976;BME280;70437;49.466;11.002;2023-08-30T08:13:02;97498.25;;;18.27;100.00
80976;BME280;70437;49.466;11.002;2023-08-30T08:15:33;97498.03;;;18.72;100.00
80976;BME280;70437;49.466;11.002;2023-08-30T08:18:04;97493.94;;;19.12;100.00
80976;BME280;70437;49.466;11.002;2023-08-30T08:20:33;97490.09;;;19.13;100.00
80976;BME280;70437;49.466;11.002;2023-08-30T08:23:04;97493.19;;;19.58;100.00
80976;BME280;70437;49.466;11.002;2023-08-30T08:25:36;97488.66;;;19.53;100.00
80976;BME280;70437;49.466;11.002;2023-08-30T08:28:05;97497.94;;;19.14;100.00
80976;BME280;70437;49.466;11.002;2023-08-30T08:30:36;97502.66;;;18.90;100.00
80976;BME280;70437;49.466;11.002;2023-08-30T08:33:05;97493.03;;;19.35;100.00
80976;BME280;70437;49.466;11.002;2023-08-30T08:35:34;97493.66;;;19.65;100.00
80976;BME280;70437;49.466;11.002;2023-08-30T08:38:03;97489.81;;;19.14;100.00
80976;BME280;70437;49.466;11.002;2023-08-30T08:40:38;97491.84;;;19.60;100.00
80976;BME280;70437;49.466;11.002;2023-08-30T08:43:11;97487.41;;;20.11;100.00
80976;BME280;70437;49.466;11.002;2023-08-30T08:45:45;97485.69;;;20.01;100.00
80976;BME280;70437;49.466;11.002;2023-08-30T08:48:15;97485.38;;;20.30;100.00
80976;BME280;70437;49.466;11.002;2023-08-30T08:50:49;97480.75;;;20.31;100.00
80976;BME280;70437;49.466;11.002;2023-08-30T08:53:17;97483.13;;;19.91;100.00
80976;BME280;70437;49.466;11.002;2023-08-30T09:30:01;97489.41;;;19.91;100.00
80976;BME280;70437;49.466;11.002;2023-08-30T09:32:39;97495.97;;;18.82;100.00
80976;BME280;70437;49.466;11.002;2023-08-30T09:35:08;97486.13;;;19.05;100.00
80976;BME280;70437;49.466;11.002;2023-08-30T09:37:39;97490.72;;;20.08;100.00
80976;BME280;70437;49.466;11.002;2023-08-30T09:40:08;97486.81;;;20.28;100.00
80976;BME280;70437;49.466;11.002;2023-08-30T09:42:41;97484.06;;;20.00;100.00
80976;BME280;70437;49.466;11.002;2023-08-30T09:45:23;97483.19;;;20.05;100.00
80976;BME280;70437;49.466;11.002;2023-08-30T09:47:53;97475.13;;;20.27;99.66
80976;BME280;70437;49.466;11.002;2023-08-30T09:50:22;97482.38;;;20.73;97.63
80976;BME280;70437;49.466;11.002;2023-08-30T09:52:54;97486.25;;;20.94;93.46
80976;BME280;70437;49.466;11.002;2023-08-30T09:55:25;97484.78;;;20.33;94.34
80976;BME280;70437;49.466;11.002;2023-08-30T09:57:57;97481.75;;;19.09;100.00
80976;BME280;70437;49.466;11.002;2023-08-30T10:00:29;97474.25;;;19.20;95.81
80976;BME280;70437;49.466;11.002;2023-08-30T10:03:01;97473.72;;;19.18;92.23
80976;BME280;70437;49.466;11.002;2023-08-30T10:05:53;97473.44;;;19.19;87.62
80976;BME280;70437;49.466;11.002;2023-08-30T10:08:23;97464.16;;;20.05;78.59
80976;BME280;70437;49.466;11.002;2023-08-30T10:11:00;97466.31;;;19.89;79.08
80976;BME280;70437;49.466;11.002;2023-08-30T10:13:30;97471.66;;;19.94;74.95
80976;BME280;70437;49.466;11.002;2023-08-30T10:16:02;97469.97;;;20.26;73.74
80976;BME280;70437;49.466;11.002;2023-08-30T10:18:35;97460.53;;;20.23;73.91
80976;BME280;70437;49.466;11.002;2023-08-30T10:21:12;97464.53;;;20.53;72.19
80976;BME280;70437;49.466;11.002;2023-08-30T10:23:45;97460.56;;;20.87;70.13
80976;BME280;70437;49.466;11.002;2023-08-30T10:26:18;97460.00;;;20.76;69.17
80976;BME280;70437;49.466;11.002;2023-08-30T10:28:47;97458.28;;;21.03;68.91
80976;BME280;70437;49.466;11.002;2023-08-30T10:31:15;97461.44;;;21.55;66.43
80976;BME280;70437;49.466;11.002;2023-08-30T10:33:53;97449.59;;;21.59;66.64
80976;BME280;70437;49.466;11.002;2023-08-30T10:36:24;97452.66;;;21.35;66.74
80976;BME280;70437;49.466;11.002;2023-08-30T10:39:39;97455.56;;;20.25;69.13
80976;BME280;70437;49.466;11.002;2023-08-30T10:42:12;97457.09;;;20.59;69.18
80976;BME280;70437;49.466;11.002;2023-08-30T10:44:49;97446.66;;;22.58;59.40
80976;BME280;70437;49.466;11.002;2023-08-30T10:47:38;97449.16;;;24.02;53.87
80976;BME280;70437;49.466;11.002;2023-08-30T10:50:10;97447.97;;;21.81;61.13
80976;BME280;70437;49.466;11.002;2023-08-30T10:52:42;97442.00;;;22.58;59.56
80976;BME280;70437;49.466;11.002;2023-08-30T10:55:12;97449.78;;;23.17;57.19
80976;BME280;70437;49.466;11.002;2023-08-30T10:57:45;97449.47;;;21.64;61.93
80976;BME280;70437;49.466;11.002;2023-08-30T11:00:22;97443.03;;;21.60;63.28
80976;BME280;70437;49.466;11.002;2023-08-30T11:02:51;97439.75;;;22.52;58.70
80976;BME280;70437;49.466;11.002;2023-08-30T11:05:23;97444.47;;;23.46;54.40
80976;BME280;70437;49.466;11.002;2023-08-30T11:07:57;97426.91;;;23.74;53.26
80976;BME280;70437;49.466;11.002;2023-08-30T11:10:26;97433.25;;;23.95;53.50
80976;BME280;70437;49.466;11.002;2023-08-30T11:12:56;97431.44;;;24.08;52.86
80976;BME280;70437;49.466;11.002;2023-08-30T11:15:31;97423.56;;;24.36;51.53
80976;BME280;70437;49.466;11.002;2023-08-30T11:18:04;97426.72;;;23.79;52.06
80976;BME280;70437;49.466;11.002;2023-08-30T11:20:42;97427.03;;;22.38;56.68
80976;BME280;70437;49.466;11.002;2023-08-30T11:23:11;97419.19;;;22.54;56.19
80976;BME280;70437;49.466;11.002;2023-08-30T11:25:41;97424.38;;;22.73;55.12
80976;BME280;70437;49.466;11.002;2023-08-30T11:28:09;97414.56;;;22.06;58.08
80976;BME280;70437;49.466;11.002;2023-08-30T11:30:41;97413.38;;;21.59;59.84
80976;BME280;70437;49.466;11.002;2023-08-30T11:33:19;97416.72;;;21.56;60.71
80976;BME280;70437;49.466;11.002;2023-08-30T11:35:51;97413.63;;;21.49;61.50
80976;BME280;70437;49.466;11.002;2023-08-30T11:38:19;97421.00;;;21.03;63.11
80976;BME280;70437;49.466;11.002;2023-08-30T11:40:49;97420.97;;;21.39;62.27
80976;BME280;70437;49.466;11.002;2023-08-30T11:43:19;97413.78;;;21.07;62.43
80976;BME280;70437;49.466;11.002;2023-08-30T11:45:55;97417.53;;;20.75;64.17
80976;BME280;70437;49.466;11.002;2023-08-30T11:48:26;97422.44;;;20.51;63.84
80976;BME280;70437;49.466;11.002;2023-08-30T11:50:56;97417.06;;;20.73;63.26
80976;BME280;70437;49.466;11.002;2023-08-30T11:53:27;97409.13;;;20.63;64.67
80976;BME280;70437;49.466;11.002;2023-08-30T11:56:02;97420.31;;;20.34;66.71
80976;BME280;70437;49.466;11.002;2023-08-30T11:58:36;97417.19;;;20.27;66.47
80976;BME280;70437;49.466;11.002;2023-08-30T12:01:07;97422.44;;;20.37;66.50
80976;BME280;70437;49.466;11.002;2023-08-30T12:03:37;97420.00;;;20.22;67.50
80976;BME280;70437;49.466;11.002;2023-08-30T12:06:10;97417.00;;;20.09;68.69
80976;BME280;70437;49.466;11.002;2023-08-30T12:08:43;97413.78;;;20.07;68.53
80976;BME280;70437;49.466;11.002;2023-08-30T12:11:19;97403.72;;;20.08;68.99
80976;BME280;70437;49.466;11.002;2023-08-30T12:13:47;97406.00;;;20.42;67.88
80976;BME280;70437;49.466;11.002;2023-08-30T12:16:16;97411.44;;;20.42;68.13
80976;BME280;70437;49.466;11.002;2023-08-30T12:18:46;97418.91;;;20.50;67.52
80976;BME280;70437;49.466;11.002;2023-08-30T12:21:16;97400.50;;;20.19;69.56
80976;BME280;70437;49.466;11.002;2023-08-30T12:23:44;97401.16;;;20.89;66.33
80976;BME280;70437;49.466;11.002;2023-08-30T12:26:12;97403.34;;;21.01;65.12
80976;BME280;70437;49.466;11.002;2023-08-30T12:28:43;97391.41;;;21.33;62.92
80976;BME280;70437;49.466;11.002;2023-08-30T12:31:12;97401.84;;;20.72;64.76
80976;BME280;70437;49.466;11.002;2023-08-30T12:33:41;97401.22;;;20.98;64.50
80976;BME280;70437;49.466;11.002;2023-08-30T12:36:13;97397.91;;;21.01;62.97
80976;BME280;70437;49.466;11.002;2023-08-30T12:38:43;97404.53;;;21.31;61.85
80976;BME280;70437;49.466;11.002;2023-08-30T12:41:12;97396.34;;;21.53;59.68
80976;BME280;70437;49.466;11.002;2023-08-30T12:43:44;97397.28;;;21.49;58.97
80976;BME280;70437;49.466;11.002;2023-08-30T12:46:13;97392.03;;;21.30;60.28
80976;BME280;70437;49.466;11.002;2023-08-30T12:48:41;97403.28;;;21.14;61.25
80976;BME280;70437;49.466;11.002;2023-08-30T12:51:12;97398.38;;;20.80;62.54
80976;BME280;70437;49.466;11.002;2023-08-30T12:53:40;97402.47;;;20.91;61.45
80976;BME280;70437;49.466;11.002;2023-08-30T12:56:11;97392.19;;;20.38;62.90
80976;BME280;70437;49.466;11.002;2023-08-30T12:58:39;97386.34;;;20.59;63.44
80976;BME280;70437;49.466;11.002;2023-08-30T13:01:07;97389.19;;;21.12;60.88
80976;BME280;70437;49.466;11.002;2023-08-30T13:03:35;97378.31;;;21.35;58.96
80976;BME280;70437;49.466;11.002;2023-08-30T13:06:05;97380.94;;;21.26;59.60
80976;BME280;70437;49.466;11.002;2023-08-30T13:08:36;97380.63;;;21.28;58.93
80976;BME280;70437;49.466;11.002;2023-08-30T13:11:04;97381.63;;;21.09;60.38
80976;BME280;70437;49.466;11.002;2023-08-30T13:13:32;97379.69;;;21.55;58.50
80976;BME280;70437;49.466;11.002;2023-08-30T13:16:00;97380.19;;;21.57;57.77
80976;BME280;70437;49.466;11.002;2023-08-30T13:18:31;97378.50;;;21.78;58.68
80976;BME280;70437;49.466;11.002;2023-08-30T13:20:59;97376.22;;;22.11;56.76
80976;BME280;70437;49.466;11.002;2023-08-30T13:23:28;97374.56;;;22.59;53.58
80976;BME280;70437;49.466;11.002;2023-08-30T13:25:59;97373.53;;;23.50;51.45
80976;BME280;70437;49.466;11.002;2023-08-30T13:28:28;97367.91;;;24.02;48.60
80976;BME280;70437;49.466;11.002;2023-08-30T13:30:57;97373.50;;;24.35;48.23
80976;BME280;70437;49.466;11.002;2023-08-30T13:33:29;97366.53;;;22.88;50.74
80976;BME280;70437;49.466;11.002;2023-08-30T13:36:00;97374.25;;;22.52;52.79
80976;BME280;70437;49.466;11.002;2023-08-30T13:38:30;97361.25;;;22.00;54.47